Terminal Aerodrome Forecast
Issued by NWS South Bend, IN

Home | Current Version | Previous Version | Text Only | Print | Product List | Glossary Off
Versions: 1 2 3 4 5 6 7 8 9 10 11 12 13

000
FTUS43 KIWX 161600 AAA
TAFSBN
TAF AMD
KSBN 161617Z 1616/1712 14007KT 6SM -SHRA OVC015
     FM161800 23006KT P6SM BKN020
     FM162100 31006KT P6SM BKN020
     FM170500 29003KT P6SM SCT030=

USA.gov is the U.S. government's official web portal to all federal, state and local government web resources and services.